sensor_id;sensor_type;location;lat;lon;timestamp;P1;durP1;ratioP1;P2;durP2;ratioP2
56233;SDS011;42141;53.240;6.580;2022-09-11T00:00:17;30.15;;;24.85;;
56233;SDS011;42141;53.240;6.580;2022-09-11T00:02:43;34.80;;;26.10;;
56233;SDS011;42141;53.240;6.580;2022-09-11T00:05:09;28.35;;;22.20;;
56233;SDS011;42141;53.240;6.580;2022-09-11T00:07:35;26.27;;;22.05;;
56233;SDS011;42141;53.240;6.580;2022-09-11T00:10:00;26.20;;;22.08;;
56233;SDS011;42141;53.240;6.580;2022-09-11T00:12:26;28.80;;;21.40;;
56233;SDS011;42141;53.240;6.580;2022-09-11T00:14:52;28.95;;;22.98;;
56233;SDS011;42141;53.240;6.580;2022-09-11T00:17:17;29.23;;;23.85;;
56233;SDS011;42141;53.240;6.580;2022-09-11T00:19:43;24.27;;;19.23;;
56233;SDS011;42141;53.240;6.580;2022-09-11T00:22:09;27.40;;;22.40;;
56233;SDS011;42141;53.240;6.580;2022-09-11T00:24:35;30.67;;;22.08;;
56233;SDS011;42141;53.240;6.580;2022-09-11T00:27:01;28.55;;;23.05;;
56233;SDS011;42141;53.240;6.580;2022-09-11T00:29:27;26.15;;;21.65;;
56233;SDS011;42141;53.240;6.580;2022-09-11T00:31:54;27.50;;;21.42;;
56233;SDS011;42141;53.240;6.580;2022-09-11T00:34:21;31.23;;;23.40;;
56233;SDS011;42141;53.240;6.580;2022-09-11T00:36:47;26.25;;;21.25;;
56233;SDS011;42141;53.240;6.580;2022-09-11T00:39:13;24.52;;;21.13;;
56233;SDS011;42141;53.240;6.580;2022-09-11T00:41:42;23.88;;;20.52;;
56233;SDS011;42141;53.240;6.580;2022-09-11T00:46:50;23.98;;;20.65;;
56233;SDS011;42141;53.240;6.580;2022-09-11T00:49:22;25.63;;;19.70;;
56233;SDS011;42141;53.240;6.580;2022-09-11T00:51:49;23.20;;;20.55;;
56233;SDS011;42141;53.240;6.580;2022-09-11T00:54:27;24.23;;;19.77;;
56233;SDS011;42141;53.240;6.580;2022-09-11T00:56:57;20.55;;;18.40;;
56233;SDS011;42141;53.240;6.580;2022-09-11T00:59:27;23.77;;;20.08;;
56233;SDS011;42141;53.240;6.580;2022-09-11T01:01:55;22.35;;;17.67;;
56233;SDS011;42141;53.240;6.580;2022-09-11T01:04:21;20.48;;;17.48;;
56233;SDS011;42141;53.240;6.580;2022-09-11T01:06:49;19.55;;;16.55;;
56233;SDS011;42141;53.240;6.580;2022-09-11T01:09:17;21.20;;;17.13;;
56233;SDS011;42141;53.240;6.580;2022-09-11T01:16:54;19.42;;;16.02;;
56233;SDS011;42141;53.240;6.580;2022-09-11T01:22:16;21.08;;;17.17;;
56233;SDS011;42141;53.240;6.580;2022-09-11T01:24:52;18.90;;;16.90;;
56233;SDS011;42141;53.240;6.580;2022-09-11T01:30:07;22.00;;;18.10;;
56233;SDS011;42141;53.240;6.580;2022-09-11T01:32:35;19.40;;;16.33;;
56233;SDS011;42141;53.240;6.580;2022-09-11T01:35:17;20.17;;;17.10;;
56233;SDS011;42141;53.240;6.580;2022-09-11T01:37:51;22.77;;;16.17;;
56233;SDS011;42141;53.240;6.580;2022-09-11T01:40:30;21.92;;;16.13;;
56233;SDS011;42141;53.240;6.580;2022-09-11T01:43:08;20.27;;;17.15;;
56233;SDS011;42141;53.240;6.580;2022-09-11T01:45:38;17.15;;;15.02;;
56233;SDS011;42141;53.240;6.580;2022-09-11T01:48:08;17.98;;;16.25;;
56233;SDS011;42141;53.240;6.580;2022-09-11T01:50:35;21.48;;;17.70;;
56233;SDS011;42141;53.240;6.580;2022-09-11T01:53:04;19.52;;;15.73;;
56233;SDS011;42141;53.240;6.580;2022-09-11T01:55:36;22.02;;;16.77;;
56233;SDS011;42141;53.240;6.580;2022-09-11T01:58:07;19.95;;;16.65;;
56233;SDS011;42141;53.240;6.580;2022-09-11T02:00:35;24.40;;;14.95;;
56233;SDS011;42141;53.240;6.580;2022-09-11T02:03:08;24.65;;;19.38;;
56233;SDS011;42141;53.240;6.580;2022-09-11T02:05:45;22.08;;;14.40;;
56233;SDS011;42141;53.240;6.580;2022-09-11T02:08:57;19.73;;;15.95;;
56233;SDS011;42141;53.240;6.580;2022-09-11T02:11:04;17.90;;;16.00;;
56233;SDS011;42141;53.240;6.580;2022-09-11T02:13:35;21.05;;;16.27;;
56233;SDS011;42141;53.240;6.580;2022-09-11T02:16:05;20.60;;;16.02;;
56233;SDS011;42141;53.240;6.580;2022-09-11T02:19:12;21.77;;;15.30;;
56233;SDS011;42141;53.240;6.580;2022-09-11T02:21:33;17.95;;;14.70;;
56233;SDS011;42141;53.240;6.580;2022-09-11T02:24:00;18.85;;;15.80;;
56233;SDS011;42141;53.240;6.580;2022-09-11T02:26:27;20.17;;;17.27;;
56233;SDS011;42141;53.240;6.580;2022-09-11T02:28:55;19.33;;;16.08;;
56233;SDS011;42141;53.240;6.580;2022-09-11T02:31:21;14.95;;;13.43;;
56233;SDS011;42141;53.240;6.580;2022-09-11T02:33:47;22.55;;;16.55;;
56233;SDS011;42141;53.240;6.580;2022-09-11T02:56:04;18.77;;;14.20;;
56233;SDS011;42141;53.240;6.580;2022-09-11T02:58:48;18.80;;;15.52;;
56233;SDS011;42141;53.240;6.580;2022-09-11T03:01:19;16.52;;;14.60;;
56233;SDS011;42141;53.240;6.580;2022-09-11T03:03:45;14.98;;;13.32;;
56233;SDS011;42141;53.240;6.580;2022-09-11T03:06:13;17.83;;;13.75;;
56233;SDS011;42141;53.240;6.580;2022-09-11T03:08:44;24.55;;;15.57;;
56233;SDS011;42141;53.240;6.580;2022-09-11T03:11:11;20.27;;;15.93;;
56233;SDS011;42141;53.240;6.580;2022-09-11T03:13:39;14.73;;;13.20;;
56233;SDS011;42141;53.240;6.580;2022-09-11T03:16:05;15.57;;;13.32;;
56233;SDS011;42141;53.240;6.580;2022-09-11T03:18:31;17.48;;;14.40;;
56233;SDS011;42141;53.240;6.580;2022-09-11T03:20:58;14.45;;;12.30;;
56233;SDS011;42141;53.240;6.580;2022-09-11T03:23:24;14.27;;;12.77;;
56233;SDS011;42141;53.240;6.580;2022-09-11T03:25:50;20.33;;;14.20;;
56233;SDS011;42141;53.240;6.580;2022-09-11T03:28:16;15.57;;;12.95;;
56233;SDS011;42141;53.240;6.580;2022-09-11T03:30:42;17.60;;;13.45;;
56233;SDS011;42141;53.240;6.580;2022-09-11T03:33:08;18.38;;;13.52;;
56233;SDS011;42141;53.240;6.580;2022-09-11T03:35:34;17.23;;;14.57;;
56233;SDS011;42141;53.240;6.580;2022-09-11T03:38:00;15.05;;;12.60;;
56233;SDS011;42141;53.240;6.580;2022-09-11T03:40:26;15.23;;;12.55;;
56233;SDS011;42141;53.240;6.580;2022-09-11T03:42:51;13.63;;;12.10;;
56233;SDS011;42141;53.240;6.580;2022-09-11T03:45:17;12.98;;;11.02;;
56233;SDS011;42141;53.240;6.580;2022-09-11T03:47:44;13.52;;;11.77;;
56233;SDS011;42141;53.240;6.580;2022-09-11T03:50:10;13.95;;;10.65;;
56233;SDS011;42141;53.240;6.580;2022-09-11T03:52:37;13.95;;;11.38;;
56233;SDS011;42141;53.240;6.580;2022-09-11T03:55:03;14.60;;;12.88;;
56233;SDS011;42141;53.240;6.580;2022-09-11T03:57:33;13.98;;;12.20;;
56233;SDS011;42141;53.240;6.580;2022-09-11T03:59:59;14.63;;;12.60;;
56233;SDS011;42141;53.240;6.580;2022-09-11T04:02:28;13.68;;;12.23;;
56233;SDS011;42141;53.240;6.580;2022-09-11T04:04:54;13.27;;;11.60;;
56233;SDS011;42141;53.240;6.580;2022-09-11T04:07:19;14.23;;;11.20;;
56233;SDS011;42141;53.240;6.580;2022-09-11T04:09:46;15.93;;;14.20;;
56233;SDS011;42141;53.240;6.580;2022-09-11T04:12:12;15.40;;;12.77;;
56233;SDS011;42141;53.240;6.580;2022-09-11T04:14:37;15.95;;;12.05;;
56233;SDS011;42141;53.240;6.580;2022-09-11T04:17:03;15.48;;;11.13;;
56233;SDS011;42141;53.240;6.580;2022-09-11T04:19:30;15.23;;;11.77;;
56233;SDS011;42141;53.240;6.580;2022-09-11T04:21:56;12.65;;;11.20;;
56233;SDS011;42141;53.240;6.580;2022-09-11T04:24:21;15.48;;;12.95;;
56233;SDS011;42141;53.240;6.580;2022-09-11T04:26:47;17.02;;;14.10;;
56233;SDS011;42141;53.240;6.580;2022-09-11T04:29:13;14.13;;;12.63;;
56233;SDS011;42141;53.240;6.580;2022-09-11T04:31:38;14.00;;;12.57;;
56233;SDS011;42141;53.240;6.580;2022-09-11T04:34:05;12.98;;;11.68;;
56233;SDS011;42141;53.240;6.580;2022-09-11T04:36:31;12.27;;;10.65;;
56233;SDS011;42141;53.240;6.580;2022-09-11T04:38:57;14.23;;;11.55;;
56233;SDS011;42141;53.240;6.580;2022-09-11T04:41:24;11.82;;;10.63;;
56233;SDS011;42141;53.240;6.580;2022-09-11T04:43:54;12.38;;;11.07;;
56233;SDS011;42141;53.240;6.580;2022-09-11T04:46:21;15.43;;;11.10;;
56233;SDS011;42141;53.240;6.580;2022-09-11T04:48:51;11.50;;;10.30;;
56233;SDS011;42141;53.240;6.580;2022-09-11T04:51:23;12.63;;;10.65;;
56233;SDS011;42141;53.240;6.580;2022-09-11T04:53:51;11.73;;;10.15;;
56233;SDS011;42141;53.240;6.580;2022-09-11T04:56:21;11.73;;;10.18;;
56233;SDS011;42141;53.240;6.580;2022-09-11T04:58:53;25.15;;;11.30;;
56233;SDS011;42141;53.240;6.580;2022-09-11T05:01:22;10.90;;;9.63;;
56233;SDS011;42141;53.240;6.580;2022-09-11T05:03:48;16.15;;;10.82;;
56233;SDS011;42141;53.240;6.580;2022-09-11T05:06:14;15.43;;;12.23;;
56233;SDS011;42141;53.240;6.580;2022-09-11T05:08:41;11.93;;;10.70;;
56233;SDS011;42141;53.240;6.580;2022-09-11T05:11:09;12.60;;;11.27;;
56233;SDS011;42141;53.240;6.580;2022-09-11T05:13:37;12.95;;;11.60;;
56233;SDS011;42141;53.240;6.580;2022-09-11T05:16:04;14.20;;;12.70;;
56233;SDS011;42141;53.240;6.580;2022-09-11T05:18:30;12.63;;;9.70;;
56233;SDS011;42141;53.240;6.580;2022-09-11T05:21:00;14.00;;;10.95;;
56233;SDS011;42141;53.240;6.580;2022-09-11T05:23:30;13.48;;;12.07;;
56233;SDS011;42141;53.240;6.580;2022-09-11T05:25:57;17.52;;;11.20;;
56233;SDS011;42141;53.240;6.580;2022-09-11T05:28:24;11.02;;;9.93;;
56233;SDS011;42141;53.240;6.580;2022-09-11T05:30:54;13.35;;;11.95;;
56233;SDS011;42141;53.240;6.580;2022-09-11T05:33:21;13.63;;;11.07;;
56233;SDS011;42141;53.240;6.580;2022-09-11T05:35:51;13.60;;;11.88;;
56233;SDS011;42141;53.240;6.580;2022-09-11T05:38:18;13.63;;;10.73;;
56233;SDS011;42141;53.240;6.580;2022-09-11T05:40:44;14.40;;;11.82;;
56233;SDS011;42141;53.240;6.580;2022-09-11T05:43:14;13.65;;;12.07;;
56233;SDS011;42141;53.240;6.580;2022-09-11T05:45:41;17.52;;;13.82;;
56233;SDS011;42141;53.240;6.580;2022-09-11T05:48:08;13.25;;;11.63;;
56233;SDS011;42141;53.240;6.580;2022-09-11T05:50:34;14.15;;;11.85;;
56233;SDS011;42141;53.240;6.580;2022-09-11T05:53:00;16.58;;;11.32;;
56233;SDS011;42141;53.240;6.580;2022-09-11T05:55:26;12.68;;;11.35;;
56233;SDS011;42141;53.240;6.580;2022-09-11T05:57:52;18.05;;;13.18;;
56233;SDS011;42141;53.240;6.580;2022-09-11T06:00:18;16.13;;;12.52;;
56233;SDS011;42141;53.240;6.580;2022-09-11T06:02:45;15.82;;;13.63;;
56233;SDS011;42141;53.240;6.580;2022-09-11T06:05:13;13.88;;;12.45;;
56233;SDS011;42141;53.240;6.580;2022-09-11T06:07:39;16.77;;;14.48;;
56233;SDS011;42141;53.240;6.580;2022-09-11T06:10:07;21.45;;;14.98;;
56233;SDS011;42141;53.240;6.580;2022-09-11T06:12:33;15.57;;;13.48;;
56233;SDS011;42141;53.240;6.580;2022-09-11T06:14:59;16.75;;;12.68;;
56233;SDS011;42141;53.240;6.580;2022-09-11T06:17:25;17.15;;;14.40;;
56233;SDS011;42141;53.240;6.580;2022-09-11T06:19:52;18.77;;;14.48;;
56233;SDS011;42141;53.240;6.580;2022-09-11T06:22:19;17.80;;;14.80;;
56233;SDS011;42141;53.240;6.580;2022-09-11T06:24:45;17.88;;;13.60;;
56233;SDS011;42141;53.240;6.580;2022-09-11T06:27:13;13.93;;;12.48;;
56233;SDS011;42141;53.240;6.580;2022-09-11T06:29:39;13.70;;;12.35;;
56233;SDS011;42141;53.240;6.580;2022-09-11T06:32:05;16.00;;;14.15;;
56233;SDS011;42141;53.240;6.580;2022-09-11T06:34:31;14.65;;;13.10;;
56233;SDS011;42141;53.240;6.580;2022-09-11T06:36:57;15.00;;;13.30;;
56233;SDS011;42141;53.240;6.580;2022-09-11T06:39:23;16.35;;;13.48;;
56233;SDS011;42141;53.240;6.580;2022-09-11T06:41:48;17.83;;;13.43;;
56233;SDS011;42141;53.240;6.580;2022-09-11T06:44:14;15.63;;;11.63;;
56233;SDS011;42141;53.240;6.580;2022-09-11T06:46:40;15.77;;;12.77;;
56233;SDS011;42141;53.240;6.580;2022-09-11T06:49:06;12.57;;;11.07;;
56233;SDS011;42141;53.240;6.580;2022-09-11T06:51:32;13.85;;;11.38;;
56233;SDS011;42141;53.240;6.580;2022-09-11T06:53:58;12.23;;;10.93;;
56233;SDS011;42141;53.240;6.580;2022-09-11T06:56:26;11.82;;;10.70;;
56233;SDS011;42141;53.240;6.580;2022-09-11T06:58:53;12.20;;;10.15;;
56233;SDS011;42141;53.240;6.580;2022-09-11T07:01:19;13.43;;;10.70;;
56233;SDS011;42141;53.240;6.580;2022-09-11T07:03:47;11.00;;;9.63;;
56233;SDS011;42141;53.240;6.580;2022-09-11T07:06:14;11.52;;;10.32;;
56233;SDS011;42141;53.240;6.580;2022-09-11T07:08:41;12.65;;;9.13;;
56233;SDS011;42141;53.240;6.580;2022-09-11T07:11:08;11.32;;;10.20;;
56233;SDS011;42141;53.240;6.580;2022-09-11T07:13:37;14.10;;;10.73;;
56233;SDS011;42141;53.240;6.580;2022-09-11T07:16:04;11.05;;;9.95;;
56233;SDS011;42141;53.240;6.580;2022-09-11T07:18:35;9.05;;;8.25;;
56233;SDS011;42141;53.240;6.580;2022-09-11T07:21:03;9.85;;;8.65;;
56233;SDS011;42141;53.240;6.580;2022-09-11T07:23:40;10.13;;;8.85;;
56233;SDS011;42141;53.240;6.580;2022-09-11T07:26:07;12.05;;;9.20;;
56233;SDS011;42141;53.240;6.580;2022-09-11T07:28:34;10.00;;;8.90;;
56233;SDS011;42141;53.240;6.580;2022-09-11T07:31:05;9.90;;;8.77;;
56233;SDS011;42141;53.240;6.580;2022-09-11T07:33:37;10.63;;;8.32;;
56233;SDS011;42141;53.240;6.580;2022-09-11T07:36:10;11.10;;;7.90;;
56233;SDS011;42141;53.240;6.580;2022-09-11T07:38:40;9.50;;;7.85;;
56233;SDS011;42141;53.240;6.580;2022-09-11T07:41:11;9.52;;;8.52;;
56233;SDS011;42141;53.240;6.580;2022-09-11T07:43:38;10.15;;;7.03;;
56233;SDS011;42141;53.240;6.580;2022-09-11T07:46:12;11.77;;;6.57;;
56233;SDS011;42141;53.240;6.580;2022-09-11T07:48:39;6.68;;;5.85;;
56233;SDS011;42141;53.240;6.580;2022-09-11T07:51:07;9.90;;;7.10;;
56233;SDS011;42141;53.240;6.580;2022-09-11T07:53:38;6.78;;;6.07;;
56233;SDS011;42141;53.240;6.580;2022-09-11T07:56:06;6.38;;;5.38;;
56233;SDS011;42141;53.240;6.580;2022-09-11T07:58:38;6.28;;;4.78;;
56233;SDS011;42141;53.240;6.580;2022-09-11T08:01:05;7.55;;;4.35;;
56233;SDS011;42141;53.240;6.580;2022-09-11T08:03:36;10.55;;;4.88;;
56233;SDS011;42141;53.240;6.580;2022-09-11T08:06:04;8.10;;;4.75;;
56233;SDS011;42141;53.240;6.580;2022-09-11T08:08:32;8.27;;;4.70;;
56233;SDS011;42141;53.240;6.580;2022-09-11T08:11:17;7.65;;;4.43;;
56233;SDS011;42141;53.240;6.580;2022-09-11T08:13:45;4.80;;;4.22;;
56233;SDS011;42141;53.240;6.580;2022-09-11T08:16:15;5.73;;;3.63;;
56233;SDS011;42141;53.240;6.580;2022-09-11T08:18:41;7.10;;;3.58;;
56233;SDS011;42141;53.240;6.580;2022-09-11T08:21:08;6.22;;;3.75;;
56233;SDS011;42141;53.240;6.580;2022-09-11T08:23:39;6.20;;;3.47;;
56233;SDS011;42141;53.240;6.580;2022-09-11T08:26:08;9.63;;;3.45;;
56233;SDS011;42141;53.240;6.580;2022-09-11T08:28:35;3.85;;;2.72;;
56233;SDS011;42141;53.240;6.580;2022-09-11T08:31:01;3.88;;;1.50;;
56233;SDS011;42141;53.240;6.580;2022-09-11T08:33:28;3.08;;;1.42;;
56233;SDS011;42141;53.240;6.580;2022-09-11T08:35:54;2.63;;;1.30;;
56233;SDS011;42141;53.240;6.580;2022-09-11T08:38:21;3.65;;;1.10;;
56233;SDS011;42141;53.240;6.580;2022-09-11T08:40:48;4.13;;;0.90;;
56233;SDS011;42141;53.240;6.580;2022-09-11T08:43:36;2.70;;;1.13;;
56233;SDS011;42141;53.240;6.580;2022-09-11T08:46:08;5.35;;;1.67;;
56233;SDS011;42141;53.240;6.580;2022-09-11T08:53:55;4.95;;;1.17;;
56233;SDS011;42141;53.240;6.580;2022-09-11T08:56:23;1.75;;;0.80;;
56233;SDS011;42141;53.240;6.580;2022-09-11T09:01:55;3.13;;;1.30;;
56233;SDS011;42141;53.240;6.580;2022-09-11T09:13:31;4.40;;;1.27;;
56233;SDS011;42141;53.240;6.580;2022-09-11T09:16:24;3.38;;;1.10;;
56233;SDS011;42141;53.240;6.580;2022-09-11T09:19:19;4.22;;;0.95;;
56233;SDS011;42141;53.240;6.580;2022-09-11T09:22:26;3.35;;;0.90;;
56233;SDS011;42141;53.240;6.580;2022-09-11T09:24:50;6.45;;;1.45;;
56233;SDS011;42141;53.240;6.580;2022-09-11T09:27:24;4.03;;;1.42;;
56233;SDS011;42141;53.240;6.580;2022-09-11T09:29:54;4.60;;;1.42;;
56233;SDS011;42141;53.240;6.580;2022-09-11T09:32:29;6.20;;;0.80;;
56233;SDS011;42141;53.240;6.580;2022-09-11T09:35:15;1.20;;;0.60;;
56233;SDS011;42141;53.240;6.580;2022-09-11T09:38:07;3.22;;;0.82;;
56233;SDS011;42141;53.240;6.580;2022-09-11T09:40:36;3.78;;;0.60;;
56233;SDS011;42141;53.240;6.580;2022-09-11T09:43:10;2.08;;;0.50;;
56233;SDS011;42141;53.240;6.580;2022-09-11T09:45:50;1.75;;;0.60;;
56233;SDS011;42141;53.240;6.580;2022-09-11T09:48:39;2.78;;;0.70;;
56233;SDS011;42141;53.240;6.580;2022-09-11T09:51:05;1.38;;;0.73;;
56233;SDS011;42141;53.240;6.580;2022-09-11T09:53:38;1.88;;;0.52;;
56233;SDS011;42141;53.240;6.580;2022-09-11T09:56:09;2.97;;;0.80;;
56233;SDS011;42141;53.240;6.580;2022-09-11T09:58:41;3.17;;;0.65;;
56233;SDS011;42141;53.240;6.580;2022-09-11T10:01:58;1.55;;;0.47;;
56233;SDS011;42141;53.240;6.580;2022-09-11T10:07:30;3.10;;;0.70;;
56233;SDS011;42141;53.240;6.580;2022-09-11T10:09:48;2.95;;;0.95;;
56233;SDS011;42141;53.240;6.580;2022-09-11T10:14:50;5.00;;;1.58;;
56233;SDS011;42141;53.240;6.580;2022-09-11T10:19:47;5.05;;;2.70;;
56233;SDS011;42141;53.240;6.580;2022-09-11T10:24:55;6.50;;;2.45;;
56233;SDS011;42141;53.240;6.580;2022-09-11T10:27:59;4.53;;;2.13;;
56233;SDS011;42141;53.240;6.580;2022-09-11T10:33:26;3.40;;;1.48;;
56233;SDS011;42141;53.240;6.580;2022-09-11T10:35:58;2.28;;;1.25;;
56233;SDS011;42141;53.240;6.580;2022-09-11T10:41:13;2.85;;;1.20;;
56233;SDS011;42141;53.240;6.580;2022-09-11T10:46:29;2.72;;;0.90;;
56233;SDS011;42141;53.240;6.580;2022-09-11T10:51:31;4.05;;;0.90;;
56233;SDS011;42141;53.240;6.580;2022-09-11T11:02:17;2.03;;;0.93;;
56233;SDS011;42141;53.240;6.580;2022-09-11T11:04:50;2.85;;;1.05;;
56233;SDS011;42141;53.240;6.580;2022-09-11T11:07:38;3.05;;;1.05;;
56233;SDS011;42141;53.240;6.580;2022-09-11T11:25:10;3.08;;;0.77;;
56233;SDS011;42141;53.240;6.580;2022-09-11T11:33:19;2.17;;;0.63;;
56233;SDS011;42141;53.240;6.580;2022-09-11T11:36:03;4.18;;;0.77;;
56233;SDS011;42141;53.240;6.580;2022-09-11T11:38:48;4.43;;;1.55;;
56233;SDS011;42141;53.240;6.580;2022-09-11T11:41:18;1.48;;;0.70;;
56233;SDS011;42141;53.240;6.580;2022-09-11T11:43:48;3.63;;;0.77;;
56233;SDS011;42141;53.240;6.580;2022-09-11T11:46:22;2.40;;;0.93;;
56233;SDS011;42141;53.240;6.580;2022-09-11T11:51:46;6.22;;;1.10;;
56233;SDS011;42141;53.240;6.580;2022-09-11T11:54:26;6.53;;;1.33;;
56233;SDS011;42141;53.240;6.580;2022-09-11T11:57:00;2.60;;;0.88;;
56233;SDS011;42141;53.240;6.580;2022-09-11T12:05:07;4.78;;;0.95;;
56233;SDS011;42141;53.240;6.580;2022-09-11T12:07:37;11.77;;;1.20;;
56233;SDS011;42141;53.240;6.580;2022-09-11T12:10:06;2.83;;;0.75;;
56233;SDS011;42141;53.240;6.580;2022-09-11T12:13:00;3.00;;;1.17;;
56233;SDS011;42141;53.240;6.580;2022-09-11T12:15:30;3.55;;;0.98;;
56233;SDS011;42141;53.240;6.580;2022-09-11T12:20:31;7.00;;;1.17;;
56233;SDS011;42141;53.240;6.580;2022-09-11T12:28:30;5.13;;;1.02;;
56233;SDS011;42141;53.240;6.580;2022-09-11T12:31:00;5.68;;;1.23;;
56233;SDS011;42141;53.240;6.580;2022-09-11T12:36:12;3.42;;;1.60;;
56233;SDS011;42141;53.240;6.580;2022-09-11T12:41:48;5.07;;;1.90;;
56233;SDS011;42141;53.240;6.580;2022-09-11T12:44:31;4.47;;;1.77;;
56233;SDS011;42141;53.240;6.580;2022-09-11T12:47:10;3.55;;;2.08;;
56233;SDS011;42141;53.240;6.580;2022-09-11T12:50:00;3.63;;;1.48;;
56233;SDS011;42141;53.240;6.580;2022-09-11T12:52:46;3.80;;;1.40;;
56233;SDS011;42141;53.240;6.580;2022-09-11T12:58:21;5.55;;;2.50;;
56233;SDS011;42141;53.240;6.580;2022-09-11T13:00:50;3.40;;;1.60;;
56233;SDS011;42141;53.240;6.580;2022-09-11T13:03:26;4.28;;;1.92;;
56233;SDS011;42141;53.240;6.580;2022-09-11T13:05:57;4.50;;;1.50;;
56233;SDS011;42141;53.240;6.580;2022-09-11T13:08:31;7.63;;;1.88;;
56233;SDS011;42141;53.240;6.580;2022-09-11T13:14:00;8.95;;;2.47;;
56233;SDS011;42141;53.240;6.580;2022-09-11T13:16:30;6.45;;;2.55;;
56233;SDS011;42141;53.240;6.580;2022-09-11T13:19:14;2.28;;;1.58;;
56233;SDS011;42141;53.240;6.580;2022-09-11T13:21:45;3.92;;;2.28;;
56233;SDS011;42141;53.240;6.580;2022-09-11T13:24:20;8.52;;;2.10;;
56233;SDS011;42141;53.240;6.580;2022-09-11T13:26:50;4.25;;;1.98;;
56233;SDS011;42141;53.240;6.580;2022-09-11T13:29:22;4.95;;;1.98;;
56233;SDS011;42141;53.240;6.580;2022-09-11T13:31:50;5.20;;;2.38;;
56233;SDS011;42141;53.240;6.580;2022-09-11T13:34:17;5.38;;;2.55;;
56233;SDS011;42141;53.240;6.580;2022-09-11T13:36:47;5.43;;;2.03;;
56233;SDS011;42141;53.240;6.580;2022-09-11T13:39:15;4.60;;;2.88;;
56233;SDS011;42141;53.240;6.580;2022-09-11T13:41:44;4.53;;;2.03;;
56233;SDS011;42141;53.240;6.580;2022-09-11T13:44:34;3.40;;;1.85;;
56233;SDS011;42141;53.240;6.580;2022-09-11T13:47:18;4.85;;;2.05;;
56233;SDS011;42141;53.240;6.580;2022-09-11T13:49:56;4.15;;;1.42;;
56233;SDS011;42141;53.240;6.580;2022-09-11T13:52:25;1.90;;;1.10;;
56233;SDS011;42141;53.240;6.580;2022-09-11T13:54:57;5.72;;;1.38;;
56233;SDS011;42141;53.240;6.580;2022-09-11T13:57:26;2.58;;;1.20;;
56233;SDS011;42141;53.240;6.580;2022-09-11T13:59:54;3.30;;;1.15;;
56233;SDS011;42141;53.240;6.580;2022-09-11T14:07:59;3.53;;;1.10;;
56233;SDS011;42141;53.240;6.580;2022-09-11T14:10:30;3.70;;;1.20;;
56233;SDS011;42141;53.240;6.580;2022-09-11T14:15:53;1.20;;;0.80;;
56233;SDS011;42141;53.240;6.580;2022-09-11T14:18:26;5.35;;;1.30;;
56233;SDS011;42141;53.240;6.580;2022-09-11T14:21:22;2.47;;;1.17;;
56233;SDS011;42141;53.240;6.580;2022-09-11T14:23:51;2.10;;;0.90;;
56233;SDS011;42141;53.240;6.580;2022-09-11T14:26:19;4.45;;;1.48;;
56233;SDS011;42141;53.240;6.580;2022-09-11T14:31:28;3.40;;;1.02;;
56233;SDS011;42141;53.240;6.580;2022-09-11T14:34:31;3.05;;;0.82;;
56233;SDS011;42141;53.240;6.580;2022-09-11T14:37:08;3.00;;;0.98;;
56233;SDS011;42141;53.240;6.580;2022-09-11T14:42:16;2.83;;;0.90;;
56233;SDS011;42141;53.240;6.580;2022-09-11T14:44:45;5.22;;;1.05;;
56233;SDS011;42141;53.240;6.580;2022-09-11T14:47:15;3.58;;;0.70;;
56233;SDS011;42141;53.240;6.580;2022-09-11T14:49:43;5.18;;;0.50;;
56233;SDS011;42141;53.240;6.580;2022-09-11T14:52:11;1.88;;;1.00;;
56233;SDS011;42141;53.240;6.580;2022-09-11T14:54:39;3.38;;;1.00;;
56233;SDS011;42141;53.240;6.580;2022-09-11T14:57:12;5.10;;;1.90;;
56233;SDS011;42141;53.240;6.580;2022-09-11T14:59:47;1.50;;;1.00;;
56233;SDS011;42141;53.240;6.580;2022-09-11T15:02:23;2.90;;;1.10;;
56233;SDS011;42141;53.240;6.580;2022-09-11T15:04:51;2.15;;;1.20;;
56233;SDS011;42141;53.240;6.580;2022-09-11T15:07:18;4.85;;;1.50;;
56233;SDS011;42141;53.240;6.580;2022-09-11T15:09:46;4.10;;;1.50;;
56233;SDS011;42141;53.240;6.580;2022-09-11T15:12:12;2.63;;;1.48;;
56233;SDS011;42141;53.240;6.580;2022-09-11T15:14:39;3.08;;;1.10;;
56233;SDS011;42141;53.240;6.580;2022-09-11T15:17:06;2.78;;;1.75;;
56233;SDS011;42141;53.240;6.580;2022-09-11T15:19:38;3.08;;;1.60;;
56233;SDS011;42141;53.240;6.580;2022-09-11T15:22:05;5.25;;;1.73;;
56233;SDS011;42141;53.240;6.580;2022-09-11T15:24:31;3.80;;;1.50;;
56233;SDS011;42141;53.240;6.580;2022-09-11T15:26:58;4.25;;;1.50;;
56233;SDS011;42141;53.240;6.580;2022-09-11T15:29:25;5.03;;;1.48;;
56233;SDS011;42141;53.240;6.580;2022-09-11T15:31:51;2.63;;;1.40;;
56233;SDS011;42141;53.240;6.580;2022-09-11T15:34:20;6.30;;;1.35;;
56233;SDS011;42141;53.240;6.580;2022-09-11T15:36:47;2.92;;;1.02;;
56233;SDS011;42141;53.240;6.580;2022-09-11T15:39:16;5.45;;;1.33;;
56233;SDS011;42141;53.240;6.580;2022-09-11T15:41:43;4.80;;;1.23;;
56233;SDS011;42141;53.240;6.580;2022-09-11T15:44:10;2.88;;;1.58;;
56233;SDS011;42141;53.240;6.580;2022-09-11T15:46:48;2.47;;;1.38;;
56233;SDS011;42141;53.240;6.580;2022-09-11T15:49:15;2.38;;;1.15;;
56233;SDS011;42141;53.240;6.580;2022-09-11T15:51:41;1.92;;;1.30;;
56233;SDS011;42141;53.240;6.580;2022-09-11T15:54:08;2.67;;;0.93;;
56233;SDS011;42141;53.240;6.580;2022-09-11T15:56:35;3.42;;;1.10;;
56233;SDS011;42141;53.240;6.580;2022-09-11T15:59:02;2.28;;;1.30;;
56233;SDS011;42141;53.240;6.580;2022-09-11T16:01:29;4.40;;;1.42;;
56233;SDS011;42141;53.240;6.580;2022-09-11T16:04:00;7.07;;;1.80;;
56233;SDS011;42141;53.240;6.580;2022-09-11T16:06:28;3.72;;;1.80;;
56233;SDS011;42141;53.240;6.580;2022-09-11T16:09:00;2.97;;;1.80;;
56233;SDS011;42141;53.240;6.580;2022-09-11T16:11:30;5.05;;;1.30;;
56233;SDS011;42141;53.240;6.580;2022-09-11T16:13:57;4.22;;;1.35;;
56233;SDS011;42141;53.240;6.580;2022-09-11T16:16:23;3.42;;;1.35;;
56233;SDS011;42141;53.240;6.580;2022-09-11T16:18:50;4.35;;;1.50;;
56233;SDS011;42141;53.240;6.580;2022-09-11T16:21:16;2.85;;;1.40;;
56233;SDS011;42141;53.240;6.580;2022-09-11T16:23:42;4.20;;;1.45;;
56233;SDS011;42141;53.240;6.580;2022-09-11T16:26:11;5.03;;;2.42;;
56233;SDS011;42141;53.240;6.580;2022-09-11T16:28:39;7.63;;;2.15;;
56233;SDS011;42141;53.240;6.580;2022-09-11T16:31:05;3.95;;;1.52;;
56233;SDS011;42141;53.240;6.580;2022-09-11T16:33:32;5.30;;;1.35;;
56233;SDS011;42141;53.240;6.580;2022-09-11T16:36:07;2.60;;;1.10;;
56233;SDS011;42141;53.240;6.580;2022-09-11T16:38:36;4.28;;;1.30;;
56233;SDS011;42141;53.240;6.580;2022-09-11T16:41:11;3.45;;;1.30;;
56233;SDS011;42141;53.240;6.580;2022-09-11T16:43:46;5.20;;;2.90;;
56233;SDS011;42141;53.240;6.580;2022-09-11T16:46:20;2.47;;;1.45;;
56233;SDS011;42141;53.240;6.580;2022-09-11T16:48:48;5.10;;;1.30;;
56233;SDS011;42141;53.240;6.580;2022-09-11T16:51:15;3.60;;;1.08;;
56233;SDS011;42141;53.240;6.580;2022-09-11T16:53:43;2.08;;;1.17;;
56233;SDS011;42141;53.240;6.580;2022-09-11T16:56:14;4.85;;;1.48;;
56233;SDS011;42141;53.240;6.580;2022-09-11T16:58:42;2.90;;;1.55;;
56233;SDS011;42141;53.240;6.580;2022-09-11T17:01:09;2.15;;;1.17;;
56233;SDS011;42141;53.240;6.580;2022-09-11T17:03:38;3.15;;;1.27;;
56233;SDS011;42141;53.240;6.580;2022-09-11T17:06:06;6.45;;;1.40;;
56233;SDS011;42141;53.240;6.580;2022-09-11T17:08:32;2.10;;;1.27;;
56233;SDS011;42141;53.240;6.580;2022-09-11T17:11:00;3.70;;;1.45;;
56233;SDS011;42141;53.240;6.580;2022-09-11T17:13:28;2.85;;;1.50;;
56233;SDS011;42141;53.240;6.580;2022-09-11T17:15:59;3.10;;;1.52;;